sensor_id;sensor_type;location;lat;lon;timestamp;temperature;humidity
52615;DHT22;38508;53.158;6.614;2022-08-16T00:00:16;23.40;99.90
52615;DHT22;38508;53.158;6.614;2022-08-16T00:02:42;23.30;99.90
52615;DHT22;38508;53.158;6.614;2022-08-16T00:05:09;23.30;99.90
52615;DHT22;38508;53.158;6.614;2022-08-16T00:07:36;23.30;99.90
52615;DHT22;38508;53.158;6.614;2022-08-16T00:10:04;23.30;99.90
52615;DHT22;38508;53.158;6.614;2022-08-16T00:12:30;23.30;99.90
52615;DHT22;38508;53.158;6.614;2022-08-16T00:14:58;23.30;99.90
52615;DHT22;38508;53.158;6.614;2022-08-16T00:17:25;23.30;99.90
52615;DHT22;38508;53.158;6.614;2022-08-16T00:19:54;23.30;99.90
52615;DHT22;38508;53.158;6.614;2022-08-16T00:22:20;23.30;99.90
52615;DHT22;38508;53.158;6.614;2022-08-16T00:24:46;23.30;99.90
52615;DHT22;38508;53.158;6.614;2022-08-16T00:27:12;23.30;99.90
52615;DHT22;38508;53.158;6.614;2022-08-16T00:29:38;23.20;99.90
52615;DHT22;38508;53.158;6.614;2022-08-16T00:32:05;23.20;99.90
52615;DHT22;38508;53.158;6.614;2022-08-16T00:34:31;23.20;99.90
52615;DHT22;38508;53.158;6.614;2022-08-16T00:36:57;23.20;99.90
52615;DHT22;38508;53.158;6.614;2022-08-16T00:39:23;23.20;99.90
52615;DHT22;38508;53.158;6.614;2022-08-16T00:41:49;23.30;99.90
52615;DHT22;38508;53.158;6.614;2022-08-16T00:44:18;23.30;99.90
52615;DHT22;38508;53.158;6.614;2022-08-16T00:46:52;23.30;99.90
52615;DHT22;38508;53.158;6.614;2022-08-16T00:49:20;23.30;99.90
52615;DHT22;38508;53.158;6.614;2022-08-16T00:51:48;23.20;99.90
52615;DHT22;38508;53.158;6.614;2022-08-16T00:54:14;23.10;99.90
52615;DHT22;38508;53.158;6.614;2022-08-16T00:56:43;23.10;99.90
52615;DHT22;38508;53.158;6.614;2022-08-16T00:59:10;23.20;99.90
52615;DHT22;38508;53.158;6.614;2022-08-16T01:01:37;23.10;99.90
52615;DHT22;38508;53.158;6.614;2022-08-16T01:04:04;23.20;99.90
52615;DHT22;38508;53.158;6.614;2022-08-16T01:06:31;23.20;99.90
52615;DHT22;38508;53.158;6.614;2022-08-16T01:09:01;23.20;99.90
52615;DHT22;38508;53.158;6.614;2022-08-16T01:11:32;23.10;99.90
52615;DHT22;38508;53.158;6.614;2022-08-16T01:14:14;23.10;99.90
52615;DHT22;38508;53.158;6.614;2022-08-16T01:16:42;23.20;99.90
52615;DHT22;38508;53.158;6.614;2022-08-16T01:19:16;23.20;99.90
52615;DHT22;38508;53.158;6.614;2022-08-16T01:21:53;23.10;99.90
52615;DHT22;38508;53.158;6.614;2022-08-16T01:24:38;23.10;99.90
52615;DHT22;38508;53.158;6.614;2022-08-16T01:27:10;23.10;99.90
52615;DHT22;38508;53.158;6.614;2022-08-16T01:29:46;23.10;99.90
52615;DHT22;38508;53.158;6.614;2022-08-16T01:32:13;23.10;99.90
52615;DHT22;38508;53.158;6.614;2022-08-16T01:34:38;23.00;99.90
52615;DHT22;38508;53.158;6.614;2022-08-16T01:37:08;23.00;99.90
52615;DHT22;38508;53.158;6.614;2022-08-16T01:39:34;23.00;99.90
52615;DHT22;38508;53.158;6.614;2022-08-16T01:42:00;22.90;99.90
52615;DHT22;38508;53.158;6.614;2022-08-16T01:44:26;22.90;99.90
52615;DHT22;38508;53.158;6.614;2022-08-16T01:46:52;22.90;99.90
52615;DHT22;38508;53.158;6.614;2022-08-16T01:49:33;22.90;99.90
52615;DHT22;38508;53.158;6.614;2022-08-16T01:52:04;22.90;99.90
52615;DHT22;38508;53.158;6.614;2022-08-16T01:54:30;22.90;99.90
52615;DHT22;38508;53.158;6.614;2022-08-16T01:56:56;22.90;99.90
52615;DHT22;38508;53.158;6.614;2022-08-16T01:59:22;22.90;99.90
52615;DHT22;38508;53.158;6.614;2022-08-16T02:01:49;22.90;99.90
52615;DHT22;38508;53.158;6.614;2022-08-16T02:04:16;22.90;99.90
52615;DHT22;38508;53.158;6.614;2022-08-16T02:06:42;22.80;99.90
52615;DHT22;38508;53.158;6.614;2022-08-16T02:09:09;22.80;99.90
52615;DHT22;38508;53.158;6.614;2022-08-16T02:11:35;22.80;99.90
52615;DHT22;38508;53.158;6.614;2022-08-16T02:14:02;22.80;99.90
52615;DHT22;38508;53.158;6.614;2022-08-16T02:16:27;22.80;99.90
52615;DHT22;38508;53.158;6.614;2022-08-16T02:18:53;22.70;99.90
52615;DHT22;38508;53.158;6.614;2022-08-16T02:21:19;22.70;99.90
52615;DHT22;38508;53.158;6.614;2022-08-16T02:23:45;22.70;99.90
52615;DHT22;38508;53.158;6.614;2022-08-16T02:26:11;22.70;99.90
52615;DHT22;38508;53.158;6.614;2022-08-16T02:28:37;22.70;99.90
52615;DHT22;38508;53.158;6.614;2022-08-16T02:31:07;22.60;99.90
52615;DHT22;38508;53.158;6.614;2022-08-16T02:33:35;22.60;99.90
52615;DHT22;38508;53.158;6.614;2022-08-16T02:36:00;22.60;99.90
52615;DHT22;38508;53.158;6.614;2022-08-16T02:38:28;22.70;99.90
52615;DHT22;38508;53.158;6.614;2022-08-16T02:40:55;22.70;99.90
52615;DHT22;38508;53.158;6.614;2022-08-16T02:43:23;22.70;99.90
52615;DHT22;38508;53.158;6.614;2022-08-16T02:45:49;22.70;99.90
52615;DHT22;38508;53.158;6.614;2022-08-16T02:48:14;22.60;99.90
52615;DHT22;38508;53.158;6.614;2022-08-16T02:50:40;22.60;99.90
52615;DHT22;38508;53.158;6.614;2022-08-16T02:53:06;22.60;99.90
52615;DHT22;38508;53.158;6.614;2022-08-16T02:55:31;22.60;99.90
52615;DHT22;38508;53.158;6.614;2022-08-16T02:57:57;22.60;99.90
52615;DHT22;38508;53.158;6.614;2022-08-16T03:00:23;22.70;99.90
52615;DHT22;38508;53.158;6.614;2022-08-16T03:02:53;22.70;99.90
52615;DHT22;38508;53.158;6.614;2022-08-16T03:05:20;22.70;99.90
52615;DHT22;38508;53.158;6.614;2022-08-16T03:07:45;22.60;99.90
52615;DHT22;38508;53.158;6.614;2022-08-16T03:10:12;22.50;99.90
52615;DHT22;38508;53.158;6.614;2022-08-16T03:12:39;22.50;99.90
52615;DHT22;38508;53.158;6.614;2022-08-16T03:15:07;22.50;99.90
52615;DHT22;38508;53.158;6.614;2022-08-16T03:17:32;22.50;99.90
52615;DHT22;38508;53.158;6.614;2022-08-16T03:19:58;22.60;99.90
52615;DHT22;38508;53.158;6.614;2022-08-16T03:22:24;22.60;99.90
52615;DHT22;38508;53.158;6.614;2022-08-16T03:24:49;22.50;99.90
52615;DHT22;38508;53.158;6.614;2022-08-16T03:27:15;22.50;99.90
52615;DHT22;38508;53.158;6.614;2022-08-16T03:29:41;22.50;99.90
52615;DHT22;38508;53.158;6.614;2022-08-16T03:32:06;22.50;99.90
52615;DHT22;38508;53.158;6.614;2022-08-16T03:34:32;22.50;99.90
52615;DHT22;38508;53.158;6.614;2022-08-16T03:36:58;22.40;99.90
52615;DHT22;38508;53.158;6.614;2022-08-16T03:39:25;22.40;99.90
52615;DHT22;38508;53.158;6.614;2022-08-16T03:41:52;22.30;99.90
52615;DHT22;38508;53.158;6.614;2022-08-16T03:44:18;22.20;99.90
52615;DHT22;38508;53.158;6.614;2022-08-16T03:46:44;22.00;99.90
52615;DHT22;38508;53.158;6.614;2022-08-16T03:49:10;22.00;99.90
52615;DHT22;38508;53.158;6.614;2022-08-16T03:51:38;21.90;99.90
52615;DHT22;38508;53.158;6.614;2022-08-16T03:54:04;21.80;99.90
52615;DHT22;38508;53.158;6.614;2022-08-16T03:56:30;21.80;99.90
52615;DHT22;38508;53.158;6.614;2022-08-16T03:58:56;21.80;99.90
52615;DHT22;38508;53.158;6.614;2022-08-16T04:01:22;21.80;99.90
52615;DHT22;38508;53.158;6.614;2022-08-16T04:03:49;21.80;99.90
52615;DHT22;38508;53.158;6.614;2022-08-16T04:06:15;21.80;99.90
52615;DHT22;38508;53.158;6.614;2022-08-16T04:08:41;21.80;99.90
52615;DHT22;38508;53.158;6.614;2022-08-16T04:11:06;21.70;99.90
52615;DHT22;38508;53.158;6.614;2022-08-16T04:13:32;21.70;99.90
52615;DHT22;38508;53.158;6.614;2022-08-16T04:15:58;21.60;99.90
52615;DHT22;38508;53.158;6.614;2022-08-16T04:18:25;21.60;99.90
52615;DHT22;38508;53.158;6.614;2022-08-16T04:20:51;21.60;99.90
52615;DHT22;38508;53.158;6.614;2022-08-16T04:23:17;21.60;99.90
52615;DHT22;38508;53.158;6.614;2022-08-16T04:25:42;21.60;99.90
52615;DHT22;38508;53.158;6.614;2022-08-16T04:28:08;21.60;99.90
52615;DHT22;38508;53.158;6.614;2022-08-16T04:30:34;21.50;99.90
52615;DHT22;38508;53.158;6.614;2022-08-16T04:33:00;21.50;99.90
52615;DHT22;38508;53.158;6.614;2022-08-16T04:35:26;21.50;99.90
52615;DHT22;38508;53.158;6.614;2022-08-16T04:37:52;21.50;99.90
52615;DHT22;38508;53.158;6.614;2022-08-16T04:40:20;21.50;99.90
52615;DHT22;38508;53.158;6.614;2022-08-16T04:42:46;21.40;99.90
52615;DHT22;38508;53.158;6.614;2022-08-16T04:45:13;21.40;99.90
52615;DHT22;38508;53.158;6.614;2022-08-16T04:47:40;21.40;99.90
52615;DHT22;38508;53.158;6.614;2022-08-16T04:50:17;21.50;99.90
52615;DHT22;38508;53.158;6.614;2022-08-16T04:52:46;21.50;99.90
52615;DHT22;38508;53.158;6.614;2022-08-16T04:55:15;21.40;99.90
52615;DHT22;38508;53.158;6.614;2022-08-16T04:57:41;21.50;99.90
52615;DHT22;38508;53.158;6.614;2022-08-16T05:00:10;21.50;99.90
52615;DHT22;38508;53.158;6.614;2022-08-16T05:02:38;21.60;99.90
52615;DHT22;38508;53.158;6.614;2022-08-16T05:05:04;21.40;99.90
52615;DHT22;38508;53.158;6.614;2022-08-16T05:07:29;21.50;99.90
52615;DHT22;38508;53.158;6.614;2022-08-16T05:09:55;21.50;99.90
52615;DHT22;38508;53.158;6.614;2022-08-16T05:12:21;21.60;99.90
52615;DHT22;38508;53.158;6.614;2022-08-16T05:14:46;21.50;99.90
52615;DHT22;38508;53.158;6.614;2022-08-16T05:17:13;21.60;99.90
52615;DHT22;38508;53.158;6.614;2022-08-16T05:19:38;21.60;99.90
52615;DHT22;38508;53.158;6.614;2022-08-16T05:22:04;21.60;99.90
52615;DHT22;38508;53.158;6.614;2022-08-16T05:24:30;21.70;99.90
52615;DHT22;38508;53.158;6.614;2022-08-16T05:26:55;21.70;99.90
52615;DHT22;38508;53.158;6.614;2022-08-16T05:29:21;21.80;99.90
52615;DHT22;38508;53.158;6.614;2022-08-16T05:31:46;21.90;99.90
52615;DHT22;38508;53.158;6.614;2022-08-16T05:34:12;21.90;99.90
52615;DHT22;38508;53.158;6.614;2022-08-16T05:36:38;22.00;99.90
52615;DHT22;38508;53.158;6.614;2022-08-16T05:39:06;22.20;99.90
52615;DHT22;38508;53.158;6.614;2022-08-16T05:41:32;22.20;99.90
52615;DHT22;38508;53.158;6.614;2022-08-16T05:43:58;22.20;99.90
52615;DHT22;38508;53.158;6.614;2022-08-16T05:46:26;22.40;99.90
52615;DHT22;38508;53.158;6.614;2022-08-16T05:48:52;22.50;99.90
52615;DHT22;38508;53.158;6.614;2022-08-16T05:51:17;22.50;99.90
52615;DHT22;38508;53.158;6.614;2022-08-16T05:53:44;22.50;99.90
52615;DHT22;38508;53.158;6.614;2022-08-16T05:56:10;22.70;99.90
52615;DHT22;38508;53.158;6.614;2022-08-16T05:58:36;22.70;99.90
52615;DHT22;38508;53.158;6.614;2022-08-16T06:01:03;22.80;99.90
52615;DHT22;38508;53.158;6.614;2022-08-16T06:03:28;22.90;99.90
52615;DHT22;38508;53.158;6.614;2022-08-16T06:05:54;22.80;99.90
52615;DHT22;38508;53.158;6.614;2022-08-16T06:08:20;22.90;99.90
52615;DHT22;38508;53.158;6.614;2022-08-16T06:10:45;22.90;99.90
52615;DHT22;38508;53.158;6.614;2022-08-16T06:13:11;23.00;99.90
52615;DHT22;38508;53.158;6.614;2022-08-16T06:15:37;23.10;99.90
52615;DHT22;38508;53.158;6.614;2022-08-16T06:18:03;23.20;99.90
52615;DHT22;38508;53.158;6.614;2022-08-16T06:20:29;23.30;99.90
52615;DHT22;38508;53.158;6.614;2022-08-16T06:22:56;23.50;99.90
52615;DHT22;38508;53.158;6.614;2022-08-16T06:25:23;23.60;99.90
52615;DHT22;38508;53.158;6.614;2022-08-16T06:27:51;23.70;99.90
52615;DHT22;38508;53.158;6.614;2022-08-16T06:30:16;23.70;99.90
52615;DHT22;38508;53.158;6.614;2022-08-16T06:32:42;23.80;99.90
52615;DHT22;38508;53.158;6.614;2022-08-16T06:35:08;23.70;99.90
52615;DHT22;38508;53.158;6.614;2022-08-16T06:37:36;23.70;99.90
52615;DHT22;38508;53.158;6.614;2022-08-16T06:40:03;23.70;99.90
52615;DHT22;38508;53.158;6.614;2022-08-16T06:42:29;23.60;99.90
52615;DHT22;38508;53.158;6.614;2022-08-16T06:44:54;23.60;99.90
52615;DHT22;38508;53.158;6.614;2022-08-16T06:47:20;23.80;99.90
52615;DHT22;38508;53.158;6.614;2022-08-16T06:49:46;23.90;99.90
52615;DHT22;38508;53.158;6.614;2022-08-16T06:52:11;24.00;99.90
52615;DHT22;38508;53.158;6.614;2022-08-16T06:54:37;23.90;99.90
52615;DHT22;38508;53.158;6.614;2022-08-16T06:57:04;23.90;99.90
52615;DHT22;38508;53.158;6.614;2022-08-16T06:59:31;24.10;99.90
52615;DHT22;38508;53.158;6.614;2022-08-16T07:01:57;24.10;99.90
52615;DHT22;38508;53.158;6.614;2022-08-16T07:04:24;24.30;99.90
52615;DHT22;38508;53.158;6.614;2022-08-16T07:06:50;24.40;99.90
52615;DHT22;38508;53.158;6.614;2022-08-16T07:09:16;24.50;99.90
52615;DHT22;38508;53.158;6.614;2022-08-16T07:11:42;24.60;99.90
52615;DHT22;38508;53.158;6.614;2022-08-16T07:14:08;24.60;99.90
52615;DHT22;38508;53.158;6.614;2022-08-16T07:16:33;24.60;99.90
52615;DHT22;38508;53.158;6.614;2022-08-16T07:18:59;24.60;99.90
52615;DHT22;38508;53.158;6.614;2022-08-16T07:21:25;24.70;99.90
52615;DHT22;38508;53.158;6.614;2022-08-16T07:23:50;24.70;99.90
52615;DHT22;38508;53.158;6.614;2022-08-16T07:26:22;24.80;99.90
52615;DHT22;38508;53.158;6.614;2022-08-16T07:28:48;24.80;99.90
52615;DHT22;38508;53.158;6.614;2022-08-16T07:31:15;24.80;99.90
52615;DHT22;38508;53.158;6.614;2022-08-16T07:33:41;24.80;99.90
52615;DHT22;38508;53.158;6.614;2022-08-16T07:36:08;24.90;99.90
52615;DHT22;38508;53.158;6.614;2022-08-16T07:38:34;25.00;99.90
52615;DHT22;38508;53.158;6.614;2022-08-16T07:41:00;25.10;99.90
52615;DHT22;38508;53.158;6.614;2022-08-16T07:43:26;25.10;99.90
52615;DHT22;38508;53.158;6.614;2022-08-16T07:45:52;24.90;99.90
52615;DHT22;38508;53.158;6.614;2022-08-16T07:48:18;25.10;99.90
52615;DHT22;38508;53.158;6.614;2022-08-16T07:50:44;25.40;99.90
52615;DHT22;38508;53.158;6.614;2022-08-16T07:53:10;25.30;99.90
52615;DHT22;38508;53.158;6.614;2022-08-16T07:55:36;25.20;99.90
52615;DHT22;38508;53.158;6.614;2022-08-16T07:58:03;25.40;99.90
52615;DHT22;38508;53.158;6.614;2022-08-16T08:00:30;25.50;99.90
52615;DHT22;38508;53.158;6.614;2022-08-16T08:02:56;25.80;99.90
52615;DHT22;38508;53.158;6.614;2022-08-16T08:05:23;25.90;99.90
52615;DHT22;38508;53.158;6.614;2022-08-16T08:07:49;25.20;99.90
52615;DHT22;38508;53.158;6.614;2022-08-16T08:10:18;25.10;99.90
52615;DHT22;38508;53.158;6.614;2022-08-16T08:12:47;25.20;99.90
52615;DHT22;38508;53.158;6.614;2022-08-16T08:15:13;25.20;99.90
52615;DHT22;38508;53.158;6.614;2022-08-16T08:17:40;25.40;99.90
52615;DHT22;38508;53.158;6.614;2022-08-16T08:20:08;25.50;99.90
52615;DHT22;38508;53.158;6.614;2022-08-16T08:22:34;25.60;99.90
52615;DHT22;38508;53.158;6.614;2022-08-16T08:25:01;25.80;99.90
52615;DHT22;38508;53.158;6.614;2022-08-16T08:27:28;25.90;99.90
52615;DHT22;38508;53.158;6.614;2022-08-16T08:29:53;26.10;99.90
52615;DHT22;38508;53.158;6.614;2022-08-16T08:32:19;26.00;99.90
52615;DHT22;38508;53.158;6.614;2022-08-16T08:34:46;26.10;99.90
52615;DHT22;38508;53.158;6.614;2022-08-16T08:37:12;26.00;99.90
52615;DHT22;38508;53.158;6.614;2022-08-16T08:39:38;26.00;99.70
52615;DHT22;38508;53.158;6.614;2022-08-16T08:42:05;25.80;99.70
52615;DHT22;38508;53.158;6.614;2022-08-16T08:44:31;25.90;99.90
52615;DHT22;38508;53.158;6.614;2022-08-16T08:46:59;26.00;99.90
52615;DHT22;38508;53.158;6.614;2022-08-16T08:49:25;26.10;99.70
52615;DHT22;38508;53.158;6.614;2022-08-16T08:51:50;26.50;99.90
52615;DHT22;38508;53.158;6.614;2022-08-16T08:54:16;26.60;99.90
52615;DHT22;38508;53.158;6.614;2022-08-16T08:56:42;27.00;99.90
52615;DHT22;38508;53.158;6.614;2022-08-16T08:59:09;27.10;99.90
52615;DHT22;38508;53.158;6.614;2022-08-16T09:01:36;27.30;99.90
52615;DHT22;38508;53.158;6.614;2022-08-16T09:04:03;27.10;99.30
52615;DHT22;38508;53.158;6.614;2022-08-16T09:06:29;27.20;99.60
52615;DHT22;38508;53.158;6.614;2022-08-16T09:08:57;27.40;99.50
52615;DHT22;38508;53.158;6.614;2022-08-16T09:11:23;27.50;99.30
52615;DHT22;38508;53.158;6.614;2022-08-16T09:13:50;27.70;99.30
52615;DHT22;38508;53.158;6.614;2022-08-16T09:16:15;27.60;99.30
52615;DHT22;38508;53.158;6.614;2022-08-16T09:18:43;27.50;99.10
52615;DHT22;38508;53.158;6.614;2022-08-16T09:21:09;27.80;99.20
52615;DHT22;38508;53.158;6.614;2022-08-16T09:23:36;27.80;99.10
52615;DHT22;38508;53.158;6.614;2022-08-16T09:26:06;28.00;98.90
52615;DHT22;38508;53.158;6.614;2022-08-16T09:28:33;28.00;98.50
52615;DHT22;38508;53.158;6.614;2022-08-16T09:30:59;28.00;98.50
52615;DHT22;38508;53.158;6.614;2022-08-16T09:33:25;28.20;98.40
52615;DHT22;38508;53.158;6.614;2022-08-16T09:35:51;28.40;98.60
52615;DHT22;38508;53.158;6.614;2022-08-16T09:38:17;28.30;98.40
52615;DHT22;38508;53.158;6.614;2022-08-16T09:40:45;27.80;98.00
52615;DHT22;38508;53.158;6.614;2022-08-16T09:43:14;27.70;98.10
52615;DHT22;38508;53.158;6.614;2022-08-16T09:45:40;27.80;98.30
52615;DHT22;38508;53.158;6.614;2022-08-16T09:48:09;27.60;98.10
52615;DHT22;38508;53.158;6.614;2022-08-16T09:50:38;27.60;98.40
52615;DHT22;38508;53.158;6.614;2022-08-16T09:53:07;27.40;98.30
52615;DHT22;38508;53.158;6.614;2022-08-16T09:55:33;27.40;98.20
52615;DHT22;38508;53.158;6.614;2022-08-16T09:57:59;27.70;98.20
52615;DHT22;38508;53.158;6.614;2022-08-16T10:00:25;28.20;98.20
52615;DHT22;38508;53.158;6.614;2022-08-16T10:02:52;28.60;97.80
52615;DHT22;38508;53.158;6.614;2022-08-16T10:05:19;28.90;98.00
52615;DHT22;38508;53.158;6.614;2022-08-16T10:07:46;29.10;97.80
52615;DHT22;38508;53.158;6.614;2022-08-16T10:10:20;29.20;98.30
52615;DHT22;38508;53.158;6.614;2022-08-16T10:12:46;29.20;97.70
52615;DHT22;38508;53.158;6.614;2022-08-16T10:15:30;29.00;97.10
52615;DHT22;38508;53.158;6.614;2022-08-16T10:17:57;28.50;97.40
52615;DHT22;38508;53.158;6.614;2022-08-16T10:20:23;28.70;97.70
52615;DHT22;38508;53.158;6.614;2022-08-16T10:22:50;28.90;97.50
52615;DHT22;38508;53.158;6.614;2022-08-16T10:25:17;29.20;97.80
52615;DHT22;38508;53.158;6.614;2022-08-16T10:27:45;29.30;97.10
52615;DHT22;38508;53.158;6.614;2022-08-16T10:30:12;28.90;97.40
52615;DHT22;38508;53.158;6.614;2022-08-16T10:32:38;29.10;97.80
52615;DHT22;38508;53.158;6.614;2022-08-16T10:35:04;29.50;97.30
52615;DHT22;38508;53.158;6.614;2022-08-16T10:37:30;29.50;97.40
52615;DHT22;38508;53.158;6.614;2022-08-16T10:39:56;29.80;97.80
52615;DHT22;38508;53.158;6.614;2022-08-16T10:42:22;30.30;97.60
52615;DHT22;38508;53.158;6.614;2022-08-16T10:44:48;30.70;97.20
52615;DHT22;38508;53.158;6.614;2022-08-16T10:47:14;30.60;97.30
52615;DHT22;38508;53.158;6.614;2022-08-16T10:49:40;30.70;97.20
52615;DHT22;38508;53.158;6.614;2022-08-16T10:52:05;30.50;97.20
52615;DHT22;38508;53.158;6.614;2022-08-16T10:54:31;30.40;97.10
52615;DHT22;38508;53.158;6.614;2022-08-16T10:56:58;30.50;96.90
52615;DHT22;38508;53.158;6.614;2022-08-16T10:59:25;30.30;97.00
52615;DHT22;38508;53.158;6.614;2022-08-16T11:01:51;30.60;97.00
52615;DHT22;38508;53.158;6.614;2022-08-16T11:04:17;31.00;96.90
52615;DHT22;38508;53.158;6.614;2022-08-16T11:06:43;31.20;96.90
52615;DHT22;38508;53.158;6.614;2022-08-16T11:09:09;31.50;97.00
52615;DHT22;38508;53.158;6.614;2022-08-16T11:11:35;31.50;96.90
52615;DHT22;38508;53.158;6.614;2022-08-16T11:14:00;31.60;96.70
52615;DHT22;38508;53.158;6.614;2022-08-16T11:16:26;31.60;96.70
52615;DHT22;38508;53.158;6.614;2022-08-16T11:18:54;31.60;96.40
52615;DHT22;38508;53.158;6.614;2022-08-16T11:21:22;31.80;96.70
52615;DHT22;38508;53.158;6.614;2022-08-16T11:23:50;31.70;96.60
52615;DHT22;38508;53.158;6.614;2022-08-16T11:26:16;31.80;96.70
52615;DHT22;38508;53.158;6.614;2022-08-16T11:28:42;31.40;96.90
52615;DHT22;38508;53.158;6.614;2022-08-16T11:31:08;31.20;97.00
52615;DHT22;38508;53.158;6.614;2022-08-16T11:33:34;31.10;96.80
52615;DHT22;38508;53.158;6.614;2022-08-16T11:35:59;31.10;97.10
52615;DHT22;38508;53.158;6.614;2022-08-16T11:38:26;31.40;96.70
52615;DHT22;38508;53.158;6.614;2022-08-16T11:40:54;31.60;96.70
52615;DHT22;38508;53.158;6.614;2022-08-16T11:43:30;31.60;96.60
52615;DHT22;38508;53.158;6.614;2022-08-16T11:45:57;31.80;96.80
52615;DHT22;38508;53.158;6.614;2022-08-16T11:48:26;32.10;96.70
52615;DHT22;38508;53.158;6.614;2022-08-16T11:50:52;32.50;96.70
52615;DHT22;38508;53.158;6.614;2022-08-16T11:53:18;32.80;96.60
52615;DHT22;38508;53.158;6.614;2022-08-16T11:55:46;32.80;96.50
52615;DHT22;38508;53.158;6.614;2022-08-16T11:58:13;32.60;96.10
52615;DHT22;38508;53.158;6.614;2022-08-16T12:00:41;33.00;96.60
52615;DHT22;38508;53.158;6.614;2022-08-16T12:03:07;33.40;96.60
52615;DHT22;38508;53.158;6.614;2022-08-16T12:05:34;33.40;96.40
52615;DHT22;38508;53.158;6.614;2022-08-16T12:08:01;33.10;96.20
52615;DHT22;38508;53.158;6.614;2022-08-16T12:10:27;32.90;95.80
52615;DHT22;38508;53.158;6.614;2022-08-16T12:12:53;32.50;96.40
52615;DHT22;38508;53.158;6.614;2022-08-16T12:15:19;32.90;96.40
52615;DHT22;38508;53.158;6.614;2022-08-16T12:17:46;33.00;96.20
52615;DHT22;38508;53.158;6.614;2022-08-16T12:20:18;33.20;96.10
52615;DHT22;38508;53.158;6.614;2022-08-16T12:22:45;33.50;96.30
52615;DHT22;38508;53.158;6.614;2022-08-16T12:25:14;33.40;95.90
52615;DHT22;38508;53.158;6.614;2022-08-16T12:27:40;33.80;96.20
52615;DHT22;38508;53.158;6.614;2022-08-16T12:30:08;33.20;95.50
52615;DHT22;38508;53.158;6.614;2022-08-16T12:32:34;33.00;95.60
52615;DHT22;38508;53.158;6.614;2022-08-16T12:35:00;33.00;95.90
52615;DHT22;38508;53.158;6.614;2022-08-16T12:37:26;32.70;95.80
52615;DHT22;38508;53.158;6.614;2022-08-16T12:39:53;33.00;96.00
52615;DHT22;38508;53.158;6.614;2022-08-16T12:42:21;33.60;96.10
52615;DHT22;38508;53.158;6.614;2022-08-16T12:44:48;34.00;95.80
52615;DHT22;38508;53.158;6.614;2022-08-16T12:47:15;33.60;95.70
52615;DHT22;38508;53.158;6.614;2022-08-16T12:49:59;33.30;95.20
52615;DHT22;38508;53.158;6.614;2022-08-16T12:52:25;32.90;95.70
52615;DHT22;38508;53.158;6.614;2022-08-16T12:54:52;33.50;95.60
52615;DHT22;38508;53.158;6.614;2022-08-16T12:57:19;33.70;95.80
52615;DHT22;38508;53.158;6.614;2022-08-16T12:59:50;33.40;95.20
52615;DHT22;38508;53.158;6.614;2022-08-16T13:02:16;33.50;95.60
52615;DHT22;38508;53.158;6.614;2022-08-16T13:04:42;33.30;95.40
52615;DHT22;38508;53.158;6.614;2022-08-16T13:07:07;33.10;95.30
52615;DHT22;38508;53.158;6.614;2022-08-16T13:09:33;33.00;95.40
52615;DHT22;38508;53.158;6.614;2022-08-16T13:12:06;33.40;95.50
52615;DHT22;38508;53.158;6.614;2022-08-16T13:14:42;34.20;95.70
52615;DHT22;38508;53.158;6.614;2022-08-16T13:17:12;34.00;95.60
52615;DHT22;38508;53.158;6.614;2022-08-16T13:19:39;34.20;95.60
52615;DHT22;38508;53.158;6.614;2022-08-16T13:22:05;34.60;95.10
52615;DHT22;38508;53.158;6.614;2022-08-16T13:24:31;34.40;95.00
52615;DHT22;38508;53.158;6.614;2022-08-16T13:26:57;34.20;95.20
52615;DHT22;38508;53.158;6.614;2022-08-16T13:29:23;33.40;94.70
52615;DHT22;38508;53.158;6.614;2022-08-16T13:31:48;32.60;94.60
52615;DHT22;38508;53.158;6.614;2022-08-16T13:34:14;32.40;94.70
52615;DHT22;38508;53.158;6.614;2022-08-16T13:36:40;31.80;94.70
52615;DHT22;38508;53.158;6.614;2022-08-16T13:39:07;31.40;94.60
52615;DHT22;38508;53.158;6.614;2022-08-16T13:41:34;30.80;94.60
52615;DHT22;38508;53.158;6.614;2022-08-16T13:44:00;31.20;94.80
52615;DHT22;38508;53.158;6.614;2022-08-16T13:46:28;31.50;94.90
52615;DHT22;38508;53.158;6.614;2022-08-16T13:48:55;31.40;94.70
52615;DHT22;38508;53.158;6.614;2022-08-16T13:51:21;31.60;95.20
52615;DHT22;38508;53.158;6.614;2022-08-16T13:53:56;31.80;95.30
52615;DHT22;38508;53.158;6.614;2022-08-16T13:56:23;32.50;95.30
52615;DHT22;38508;53.158;6.614;2022-08-16T13:58:49;32.40;95.20
52615;DHT22;38508;53.158;6.614;2022-08-16T14:01:16;32.30;95.60
52615;DHT22;38508;53.158;6.614;2022-08-16T14:03:43;32.30;95.40
52615;DHT22;38508;53.158;6.614;2022-08-16T14:06:10;32.50;95.60
52615;DHT22;38508;53.158;6.614;2022-08-16T14:08:37;32.90;95.60
52615;DHT22;38508;53.158;6.614;2022-08-16T14:11:04;33.10;95.60
52615;DHT22;38508;53.158;6.614;2022-08-16T14:13:31;33.20;95.70
52615;DHT22;38508;53.158;6.614;2022-08-16T14:15:56;33.30;95.70
52615;DHT22;38508;53.158;6.614;2022-08-16T14:18:22;33.20;95.90
52615;DHT22;38508;53.158;6.614;2022-08-16T14:20:48;32.20;95.70
52615;DHT22;38508;53.158;6.614;2022-08-16T14:23:14;31.70;95.80
52615;DHT22;38508;53.158;6.614;2022-08-16T14:25:41;31.60;95.90
52615;DHT22;38508;53.158;6.614;2022-08-16T14:28:06;31.30;96.00
52615;DHT22;38508;53.158;6.614;2022-08-16T14:30:33;31.10;96.20
52615;DHT22;38508;53.158;6.614;2022-08-16T14:32:58;31.20;95.90
52615;DHT22;38508;53.158;6.614;2022-08-16T14:35:27;31.10;96.00
52615;DHT22;38508;53.158;6.614;2022-08-16T14:37:53;31.00;96.00
52615;DHT22;38508;53.158;6.614;2022-08-16T14:40:19;30.80;96.00
52615;DHT22;38508;53.158;6.614;2022-08-16T14:42:46;30.60;96.20
52615;DHT22;38508;53.158;6.614;2022-08-16T14:45:15;30.90;95.90
52615;DHT22;38508;53.158;6.614;2022-08-16T14:47:41;31.10;95.90
52615;DHT22;38508;53.158;6.614;2022-08-16T14:50:10;30.90;95.90
52615;DHT22;38508;53.158;6.614;2022-08-16T14:52:38;30.60;95.90
52615;DHT22;38508;53.158;6.614;2022-08-16T14:55:04;30.50;96.00
52615;DHT22;38508;53.158;6.614;2022-08-16T14:57:31;30.60;96.10
52615;DHT22;38508;53.158;6.614;2022-08-16T14:59:56;30.70;96.60
52615;DHT22;38508;53.158;6.614;2022-08-16T15:02:24;30.90;96.80
52615;DHT22;38508;53.158;6.614;2022-08-16T15:04:50;31.00;97.00
52615;DHT22;38508;53.158;6.614;2022-08-16T15:07:18;30.90;97.00
52615;DHT22;38508;53.158;6.614;2022-08-16T15:09:45;30.50;97.00
52615;DHT22;38508;53.158;6.614;2022-08-16T15:12:17;30.60;97.00
52615;DHT22;38508;53.158;6.614;2022-08-16T15:14:45;30.50;97.10
52615;DHT22;38508;53.158;6.614;2022-08-16T15:17:13;30.80;96.90
52615;DHT22;38508;53.158;6.614;2022-08-16T15:19:39;31.00;96.90
52615;DHT22;38508;53.158;6.614;2022-08-16T15:22:19;31.00;96.80
52615;DHT22;38508;53.158;6.614;2022-08-16T15:24:46;31.20;96.80
52615;DHT22;38508;53.158;6.614;2022-08-16T15:27:12;31.20;96.80